Time;durP1;ratioP1;P1;durP2;ratioP2;P2;SDS_P1;SDS_P2;PMS_P1;PMS_P2;Temp;Humidity;BMP_temperature;BMP_pressure;BME280_temperature;BME280_humidity;BME280_pressure;Samples;Min_cycle;Max_cycle;Signal;HPM_P1;HPM_P2
2021/07/07 00:03:33;;;;;;;15.48;9.00;;;;;;;25.82;76.91;99828.72;1286466;22;20265;-65
2021/07/07 00:08:38;;;;;;;12.35;8.48;;;;;;;26.07;75.39;99825.50;1214343;23;20155;-70
2021/07/07 00:21:04;;;;;;;10.02;7.70;;;;;;;25.94;76.32;99827.56;3086358;22;20071;-67
2021/07/07 00:26:51;;;;;;;11.45;8.20;;;;;;;26.02;75.59;99823.28;1645590;23;20208;-73
2021/07/07 00:29:43;;;;;;;12.77;8.13;;;;;;;26.00;75.52;99827.81;1284340;22;20198;-69
2021/07/07 00:42:51;;;;;;;13.95;10.00;;;;;;;25.47;78.29;99818.97;1280369;23;20197;-70
2021/07/07 00:50:44;;;;;;;11.32;9.25;;;;;;;25.55;78.30;99830.31;1281227;23;20190;-68
2021/07/07 01:06:43;;;;;;;8.38;7.20;;;;;;;25.64;73.78;99841.66;1281436;23;21401;-75
2021/07/07 01:17:14;;;;;;;8.27;6.68;;;;;;;25.31;75.18;99840.34;1137166;23;20263;-67
2021/07/07 01:36:12;;;;;;;8.88;7.97;;;;;;;24.88;81.13;99840.78;1210126;23;20197;-69
2021/07/07 01:38:41;;;;;;;11.02;7.90;;;;;;;24.61;81.39;99844.97;1240898;22;20621;31
2021/07/07 01:41:07;;;;;;;14.68;8.52;;;;;;;24.70;81.24;99836.38;3594844;23;20029;-65
2021/07/07 02:10:05;;;;;;;13.90;9.90;;;;;;;24.27;85.89;99848.88;1138772;23;20235;-65
2021/07/07 02:29:49;;;;;;;13.00;9.77;;;;;;;24.05;87.26;99868.91;1280149;23;21603;-75
2021/07/07 02:39:52;;;;;;;13.30;9.75;;;;;;;24.44;86.21;99869.03;1427083;23;20218;-78
2021/07/07 02:42:43;;;;;;;13.60;9.35;;;;;;;24.14;86.25;99861.28;1353461;23;21546;31
2021/07/07 02:48:03;;;;;;;13.82;9.10;;;;;;;24.32;86.74;99864.91;1350623;22;21402;-79
2021/07/07 03:20:19;;;;;;;9.35;7.63;;;;;;;24.87;79.31;99885.97;1374958;23;20325;-70
2021/07/07 03:25:36;;;;;;;9.32;7.03;;;;;;;24.76;79.59;99890.50;1357572;22;20272;-71
2021/07/07 03:28:17;;;;;;;8.70;7.03;;;;;;;24.84;79.03;99894.03;3743622;22;20029;-76
2021/07/07 03:33:40;;;;;;;9.55;6.82;;;;;;;24.82;79.05;99906.38;3732688;23;20048;-64
2021/07/07 03:42:07;;;;;;;10.63;7.80;;;;;;;24.79;80.15;99903.22;1281895;22;20185;-69
2021/07/07 03:52:32;;;;;;;11.60;7.25;;;;;;;25.00;79.73;99909.13;3442193;23;20037;-73
2021/07/07 04:03:38;;;;;;;10.20;6.40;;;;;;;25.27;77.91;99922.31;1209403;23;21541;-75
2021/07/07 04:08:33;;;;;;;8.80;6.40;;;;;;;25.32;76.97;99927.06;1279426;23;20171;-72
2021/07/07 04:11:24;;;;;;;7.95;7.10;;;;;;;25.39;77.10;99929.00;1353059;23;21533;-76
2021/07/07 04:22:24;;;;;;;10.05;6.60;;;;;;;25.59;76.36;99925.44;1210079;22;21512;-75
2021/07/07 04:35:47;;;;;;;8.38;6.30;;;;;;;26.09;75.71;99939.06;1214622;22;21608;-76
2021/07/07 04:53:36;;;;;;;7.15;6.43;;;;;;;26.23;74.03;99956.03;3779270;23;20035;-73
2021/07/07 04:58:56;;;;;;;9.32;6.50;;;;;;;26.69;72.68;99968.16;3682682;22;20795;-72
2021/07/07 05:17:21;;;;;;;9.00;6.40;;;;;;;27.22;70.17;99969.91;3671275;23;20064;-76
2021/07/07 05:31:39;;;;;;;7.43;6.10;;;;;;;28.16;68.06;99978.88;3734862;23;20036;-72
2021/07/07 05:34:11;;;;;;;9.45;6.65;;;;;;;28.39;66.62;99981.75;3746939;22;20036;-71
2021/07/07 05:39:16;;;;;;;7.38;6.40;;;;;;;28.17;65.86;99996.19;3798820;23;20052;31
2021/07/07 05:42:07;;;;;;;8.02;6.40;;;;;;;28.74;65.75;99994.72;3727210;22;20044;-73
2021/07/07 05:55:16;;;;;;;6.82;5.68;;;;;;;28.52;64.77;99995.25;3696940;23;20052;-73
2021/07/07 06:00:11;;;;;;;9.02;6.78;;;;;;;28.91;64.20;99997.22;3599840;39;20045;-72
2021/07/07 06:02:39;;;;;;;6.75;5.93;;;;;;;28.84;62.72;99993.59;3593258;40;20029;-72
2021/07/07 06:05:10;;;;;;;7.03;6.32;;;;;;;29.12;62.72;100004.63;3602222;40;20429;-74
2021/07/07 06:21:11;;;;;;;7.00;6.30;;;;;;;28.79;62.16;100008.97;3764140;23;20151;-71
2021/07/07 06:24:10;;;;;;;8.27;6.43;;;;;;;29.00;62.15;100008.53;3744703;22;20040;-71
2021/07/07 06:35:09;;;;;;;6.78;6.03;;;;;;;29.45;61.82;100013.41;3773888;23;20036;-72
2021/07/07 06:48:20;;;;;;;9.43;6.93;;;;;;;29.56;60.38;100015.69;3694048;23;20069;-72
2021/07/07 06:50:46;;;;;;;7.68;6.80;;;;;;;29.61;59.28;100016.03;3601429;39;20033;-74
2021/07/07 06:55:41;;;;;;;8.45;7.10;;;;;;;29.58;59.03;100017.19;3599718;39;21324;-72
2021/07/07 06:58:12;;;;;;;7.40;6.70;;;;;;;30.33;58.01;100023.06;3601936;39;21161;-76
2021/07/07 07:10:34;;;;;;;7.22;6.45;;;;;;;30.01;58.95;100026.53;3600474;39;20065;-71
2021/07/07 07:15:29;;;;;;;7.95;6.03;;;;;;;30.60;55.30;100028.72;3601171;39;20325;-71
2021/07/07 07:25:22;;;;;;;7.35;6.00;;;;;;;29.48;59.89;100032.25;3602480;40;20045;-73
2021/07/07 07:35:25;;;;;;;8.35;6.97;;;;;;;29.77;59.04;100039.69;3677761;23;20050;-73
2021/07/07 07:40:57;;;;;;;7.30;6.60;;;;;;;29.07;61.31;100043.59;3710957;22;20047;-72
2021/07/07 07:58:03;;;;;;;11.30;6.82;;;;;;;29.43;60.83;100037.16;3626386;23;20044;-72
2021/07/07 08:02:58;;;;;;;7.25;6.45;;;;;;;29.26;60.74;100045.16;3601922;39;20041;-72
2021/07/07 08:05:23;;;;;;;8.30;7.18;;;;;;;29.14;60.91;100039.38;3602870;40;20114;-72
2021/07/07 08:07:49;;;;;;;8.07;6.60;;;;;;;29.38;61.41;100039.44;3602902;40;20028;-71
2021/07/07 08:10:19;;;;;;;8.55;7.03;;;;;;;30.13;58.58;100040.94;3592109;40;20032;-72
2021/07/07 08:12:45;;;;;;;11.07;7.40;;;;;;;30.92;57.19;100042.75;3602332;39;20061;-72
2021/07/07 08:15:11;;;;;;;7.10;5.80;;;;;;;30.79;57.37;100038.81;3602922;40;20033;-72
2021/07/07 08:17:37;;;;;;;12.02;6.55;;;;;;;30.72;56.83;100042.31;3593061;40;20032;-72
2021/07/07 08:20:08;;;;;;;7.80;5.97;;;;;;;30.86;57.00;100038.19;3602441;40;20072;-76
2021/07/07 08:22:34;;;;;;;7.68;6.13;;;;;;;31.44;55.68;100041.97;3601705;40;20439;-70
2021/07/07 08:24:59;;;;;;;8.20;5.45;;;;;;;30.54;56.03;100052.22;3602172;40;20040;-72
2021/07/07 08:27:25;;;;;;;6.93;5.82;;;;;;;30.64;55.54;100050.22;3602122;40;20032;-72
2021/07/07 08:29:50;;;;;;;5.60;5.10;;;;;;;31.25;54.95;100055.53;3603041;40;20036;-70
2021/07/07 08:32:16;;;;;;;9.20;6.15;;;;;;;31.24;54.38;100060.94;3602470;39;20048;-75
2021/07/07 08:34:41;;;;;;;6.18;5.35;;;;;;;31.61;52.64;100061.09;3591767;40;20490;-72
2021/07/07 08:37:07;;;;;;;7.10;5.55;;;;;;;31.49;54.14;100071.19;3583107;40;20057;-77
2021/07/07 08:47:00;;;;;;;6.55;5.43;;;;;;;31.85;51.68;100067.97;3590945;40;20061;-72
2021/07/07 08:49:25;;;;;;;6.63;5.60;;;;;;;32.29;51.65;100071.53;3592120;40;20037;-73
2021/07/07 08:57:27;;;;;;;10.10;5.90;;;;;;;31.97;52.57;100071.84;3611636;40;20105;-71
2021/07/07 08:59:52;;;;;;;8.70;6.03;;;;;;;32.22;52.00;100076.72;3612128;40;20040;-72
2021/07/07 09:02:18;;;;;;;5.88;5.38;;;;;;;31.98;51.33;100073.47;3611480;40;20490;-71
2021/07/07 09:04:45;;;;;;;9.38;5.22;;;;;;;32.00;51.27;100071.47;3612494;40;20056;-72
2021/07/07 09:07:23;;;;;;;7.68;5.15;;;;;;;32.30;50.65;100071.38;3612626;39;20032;-72
2021/07/07 09:09:51;;;;;;;7.10;5.40;;;;;;;32.47;50.35;100079.94;3610828;40;20027;-70
2021/07/07 09:12:26;;;;;;;6.70;5.20;;;;;;;32.17;50.66;100070.34;3612472;40;20040;-72
2021/07/07 09:15:01;;;;;;;6.78;4.88;;;;;;;32.02;50.15;100078.22;3612136;40;20303;-72
2021/07/07 09:17:26;;;;;;;8.38;5.32;;;;;;;31.71;51.97;100071.38;3612007;40;20692;-71
2021/07/07 09:19:52;;;;;;;7.15;5.38;;;;;;;32.20;50.94;100077.88;3611569;40;20024;-72
2021/07/07 09:22:23;;;;;;;8.15;5.00;;;;;;;32.33;49.20;100078.91;3602700;39;20029;-70
2021/07/07 09:24:59;;;;;;;6.65;5.43;;;;;;;32.72;49.12;100072.59;3611971;39;20274;-74
2021/07/07 09:27:33;;;;;;;6.72;5.28;;;;;;;32.14;50.36;100071.53;3612000;40;20040;-71
2021/07/07 09:30:05;;;;;;;6.90;5.15;;;;;;;32.21;50.17;100068.97;3611702;40;20039;-72
2021/07/07 09:32:31;;;;;;;5.53;4.75;;;;;;;32.58;48.68;100055.78;3611125;40;20067;-72
2021/07/07 09:37:28;;;;;;;5.55;4.85;;;;;;;32.66;47.07;100057.50;3579197;40;20046;-72
2021/07/07 09:42:24;;;;;;;5.63;4.90;;;;;;;32.55;47.38;100052.69;3596898;40;20126;-72
2021/07/07 09:44:50;;;;;;;7.35;4.70;;;;;;;32.98;46.64;100046.59;3590772;40;20048;-71
2021/07/07 09:47:17;;;;;;;7.22;5.25;;;;;;;32.97;46.72;100052.84;3590940;40;20033;-72
2021/07/07 09:49:47;;;;;;;5.00;4.60;;;;;;;33.33;45.63;100052.84;3590555;40;20057;-72
2021/07/07 09:52:13;;;;;;;5.82;4.50;;;;;;;33.42;45.79;100059.66;3591186;40;20033;-72
2021/07/07 09:54:38;;;;;;;4.90;4.38;;;;;;;33.86;45.08;100053.19;3591831;40;20049;-72
2021/07/07 09:57:04;;;;;;;5.53;4.95;;;;;;;33.17;46.08;100053.91;3589604;40;20033;-72
2021/07/07 09:59:29;;;;;;;5.07;4.57;;;;;;;33.29;46.20;100052.41;3589837;40;20061;-71
2021/07/07 10:01:55;;;;;;;4.90;4.40;;;;;;;33.11;46.13;100052.84;3589621;40;20091;-71
2021/07/07 10:04:23;;;;;;;5.95;4.45;;;;;;;33.87;46.00;100054.81;3589781;40;20067;-72
2021/07/07 10:06:49;;;;;;;5.75;5.15;;;;;;;33.67;45.92;100048.56;3588717;40;20371;-72
2021/07/07 10:09:16;;;;;;;6.22;4.70;;;;;;;33.13;45.90;100050.00;3589240;40;20041;-70
2021/07/07 10:11:42;;;;;;;8.85;4.72;;;;;;;34.04;45.30;100050.94;3580366;40;20044;-71
2021/07/07 10:14:12;;;;;;;5.88;4.10;;;;;;;33.79;44.98;100054.16;3589783;40;20134;-71
2021/07/07 10:16:38;;;;;;;5.32;4.40;;;;;;;33.66;45.05;100046.09;3589701;40;20030;-72
2021/07/07 10:19:04;;;;;;;5.75;4.60;;;;;;;34.13;45.67;100045.50;3589868;40;20307;-71
2021/07/07 10:21:29;;;;;;;6.78;4.50;;;;;;;33.64;45.45;100032.28;3588994;40;20037;-72
2021/07/07 10:23:55;;;;;;;5.53;4.63;;;;;;;34.42;43.32;100032.88;3590053;40;20052;-71
2021/07/07 10:26:22;;;;;;;5.70;4.25;;;;;;;34.09;43.40;100032.66;3588896;40;20051;-73
2021/07/07 10:28:49;;;;;;;5.30;4.47;;;;;;;34.62;43.17;100033.03;3588741;40;20041;-73
2021/07/07 10:31:15;;;;;;;5.30;4.80;;;;;;;33.82;44.15;100027.34;3588702;40;20037;-71
2021/07/07 10:33:40;;;;;;;6.95;4.70;;;;;;;35.16;41.51;100028.53;3578815;40;20040;-71
2021/07/07 10:36:13;;;;;;;5.25;4.32;;;;;;;34.59;43.63;100031.56;3588956;40;20033;-74
2021/07/07 10:38:38;;;;;;;7.25;5.00;;;;;;;34.00;44.54;100035.66;3590116;40;20047;-72
2021/07/07 10:43:45;;;;;;;10.25;4.80;;;;;;;34.56;43.17;100029.34;3593585;40;20091;-73
2021/07/07 10:46:51;;;;;;;4.97;4.28;;;;;;;34.65;41.19;100020.22;3598620;40;20110;-72
2021/07/07 10:49:28;;;;;;;4.75;4.22;;;;;;;34.72;41.15;100025.53;3600481;40;20062;-71
2021/07/07 10:51:58;;;;;;;5.68;4.28;;;;;;;34.62;41.74;100025.91;3601489;40;20044;-72
2021/07/07 10:54:27;;;;;;;6.50;4.20;;;;;;;34.32;42.67;100027.13;3600567;40;20032;-73
2021/07/07 10:56:54;;;;;;;5.60;4.07;;;;;;;34.68;42.62;100019.84;3601964;40;20029;-72
2021/07/07 10:59:41;;;;;;;7.07;4.22;;;;;;;34.64;41.69;100018.59;3600537;40;20037;-71
2021/07/07 11:02:07;;;;;;;6.50;4.40;;;;;;;34.12;43.15;100014.81;3598608;40;20069;-71
2021/07/07 11:04:40;;;;;;;7.68;4.47;;;;;;;34.72;42.31;100023.72;3600897;40;20319;-73
2021/07/07 11:07:21;;;;;;;7.93;4.32;;;;;;;36.05;40.79;100016.66;3600429;40;20029;-72
2021/07/07 11:09:52;;;;;;;5.57;4.43;;;;;;;35.06;40.61;100024.69;3599564;40;20053;-70
2021/07/07 11:12:18;;;;;;;6.10;3.97;;;;;;;34.08;42.92;100019.66;3599770;40;20033;-72
2021/07/07 11:14:58;;;;;;;10.05;4.38;;;;;;;34.04;43.73;100021.88;3599404;40;20045;-74
2021/07/07 11:17:31;;;;;;;5.03;4.53;;;;;;;34.45;42.98;100018.44;3600409;40;20048;-71
2021/07/07 11:19:58;;;;;;;5.15;3.90;;;;;;;34.47;41.35;100019.06;3601164;40;20033;-71
2021/07/07 11:22:24;;;;;;;4.95;4.18;;;;;;;33.57;43.20;100021.69;3600295;40;20698;-72
2021/07/07 11:24:57;;;;;;;5.45;4.72;;;;;;;32.93;46.48;100023.38;3600917;40;21277;-71
2021/07/07 11:27:23;;;;;;;5.60;4.57;;;;;;;33.01;48.34;100017.22;3600833;40;20040;-73
2021/07/07 11:29:49;;;;;;;6.70;5.20;;;;;;;32.29;49.70;100022.31;3600693;40;20312;-72
2021/07/07 11:32:44;;;;;;;8.88;5.32;;;;;;;33.83;45.38;100019.25;3600848;40;20098;-71
2021/07/07 11:35:30;;;;;;;5.53;4.43;;;;;;;34.12;42.59;100025.38;3580044;40;20554;-72
2021/07/07 11:38:05;;;;;;;6.53;4.22;;;;;;;33.98;43.65;100019.19;3590995;40;20035;-72
2021/07/07 11:40:32;;;;;;;7.55;4.25;;;;;;;34.16;43.68;100008.97;3600234;40;20032;-73
2021/07/07 11:43:04;;;;;;;5.68;4.53;;;;;;;34.24;43.98;100011.44;3600903;40;20045;-71
2021/07/07 11:45:29;;;;;;;7.35;4.45;;;;;;;33.82;46.38;100020.25;3597213;40;20055;-72
2021/07/07 11:48:09;;;;;;;5.10;4.50;;;;;;;33.08;47.33;100016.28;3596589;40;20052;-71
2021/07/07 11:50:38;;;;;;;7.32;5.10;;;;;;;33.15;48.42;100022.47;3589526;40;20410;-71
2021/07/07 11:53:06;;;;;;;5.90;5.03;;;;;;;33.30;48.10;100027.66;3600978;40;20044;-73
2021/07/07 11:55:49;;;;;;;6.28;4.80;;;;;;;32.96;47.51;100028.31;3591042;40;20380;-71
2021/07/07 11:58:38;;;;;;;5.82;4.35;;;;;;;32.48;46.75;100028.09;3600930;40;20071;-72
2021/07/07 12:01:18;;;;;;;7.47;4.57;;;;;;;32.25;48.43;100030.75;3603048;39;20029;-72
2021/07/07 12:04:07;;;;;;;5.35;4.57;;;;;;;31.72;49.93;100034.34;3602574;39;20039;-73
2021/07/07 12:06:34;;;;;;;6.32;4.97;;;;;;;32.26;48.96;100027.97;3602623;39;20052;-72
2021/07/07 12:09:02;;;;;;;5.85;4.93;;;;;;;32.77;48.79;100017.50;3603238;39;20035;-72
2021/07/07 12:13:57;;;;;;;6.85;5.32;;;;;;;34.18;45.42;100012.22;3571837;40;20058;-72
2021/07/07 12:16:36;;;;;;;5.25;4.78;;;;;;;33.22;47.04;100019.88;3572570;40;20033;-73
2021/07/07 12:21:34;;;;;;;5.43;4.90;;;;;;;33.21;46.18;100010.34;3591243;40;20550;-75
2021/07/07 12:24:12;;;;;;;5.97;4.78;;;;;;;34.16;44.25;100013.41;3583690;40;20093;-73
2021/07/07 12:29:11;;;;;;;7.53;4.70;;;;;;;33.37;45.49;100025.94;3591229;40;20040;-71
2021/07/07 12:31:39;;;;;;;6.70;4.72;;;;;;;32.62;47.64;100020.19;3591927;40;20431;-71
2021/07/07 12:34:06;;;;;;;9.88;5.38;;;;;;;32.45;49.77;100021.34;3590331;40;20060;-71
2021/07/07 12:36:34;;;;;;;6.70;4.75;;;;;;;32.98;48.30;100018.41;3591274;40;20041;-75
2021/07/07 12:39:09;;;;;;;6.30;5.13;;;;;;;33.76;46.22;100015.75;3590676;40;20090;-72
2021/07/07 12:41:39;;;;;;;5.47;4.95;;;;;;;33.98;46.05;100014.72;3591342;40;20037;-73
2021/07/07 12:46:46;;;;;;;5.50;4.97;;;;;;;33.93;44.18;100011.81;3592231;40;20235;-71
2021/07/07 12:49:12;;;;;;;6.72;5.15;;;;;;;34.49;44.59;100019.72;3591855;40;20021;-72
2021/07/07 12:51:37;;;;;;;5.60;5.00;;;;;;;32.99;45.29;100027.13;3592102;40;20025;-72
2021/07/07 12:54:17;;;;;;;5.65;4.57;;;;;;;33.76;44.40;100018.38;3592937;40;20115;-72
2021/07/07 12:57:00;;;;;;;5.05;4.55;;;;;;;33.94;46.09;100029.28;3592409;40;20021;-71
2021/07/07 13:04:24;;;;;;;5.47;4.22;;;;;;;33.95;43.95;100038.81;3590805;40;20055;-72
2021/07/07 13:07:10;;;;;;;5.00;4.07;;;;;;;33.99;43.53;100034.81;3591549;40;20033;-73
2021/07/07 13:09:38;;;;;;;6.13;4.32;;;;;;;34.42;43.02;100016.22;3596997;40;20037;-77
2021/07/07 13:12:09;;;;;;;4.25;3.85;;;;;;;34.23;40.98;100019.56;3590066;40;20049;-73
2021/07/07 13:14:35;;;;;;;4.40;4.00;;;;;;;34.38;41.25;100030.81;3589547;40;20439;-71
2021/07/07 13:17:02;;;;;;;4.70;4.22;;;;;;;33.53;42.92;100019.59;3589237;40;20033;-73
2021/07/07 13:19:29;;;;;;;6.03;4.30;;;;;;;33.39;44.15;100028.38;3594760;40;20057;-71
2021/07/07 13:22:01;;;;;;;5.00;4.50;;;;;;;34.09;42.53;100027.38;3591030;40;20108;-71
2021/07/07 13:24:34;;;;;;;4.75;4.35;;;;;;;34.14;42.64;100037.38;3591075;40;20420;-72
2021/07/07 13:27:04;;;;;;;5.10;4.53;;;;;;;33.20;45.56;100027.97;3591383;40;20049;-71
2021/07/07 13:29:34;;;;;;;5.68;4.60;;;;;;;33.32;46.09;100030.94;3591323;40;20086;-71
2021/07/07 13:32:15;;;;;;;8.23;4.80;;;;;;;33.73;46.71;100045.19;3591579;40;20041;-73
2021/07/07 13:34:43;;;;;;;5.68;5.00;;;;;;;33.54;47.87;100032.59;3591247;40;20029;-72
2021/07/07 13:37:33;;;;;;;7.13;5.50;;;;;;;33.01;48.58;100035.66;3591078;40;20036;-72
2021/07/07 13:40:02;;;;;;;5.22;4.72;;;;;;;33.43;47.29;100038.34;3571621;40;20049;-71
2021/07/07 13:42:29;;;;;;;6.50;4.68;;;;;;;32.59;48.27;100046.06;3571551;40;20120;-71
2021/07/07 13:44:57;;;;;;;5.85;5.05;;;;;;;32.93;47.81;100056.84;3581054;40;20025;-71
2021/07/07 13:49:52;;;;;;;5.55;5.05;;;;;;;33.58;47.53;100065.50;3591212;40;20116;-72
2021/07/07 13:52:18;;;;;;;9.25;4.95;;;;;;;33.33;46.93;100072.13;3592083;40;20416;-72
2021/07/07 13:57:15;;;;;;;8.70;4.70;;;;;;;32.76;48.80;100093.13;3591398;40;20056;-72
2021/07/07 13:59:42;;;;;;;8.70;5.03;;;;;;;30.61;57.86;100093.38;3591725;40;20378;-73
2021/07/07 14:02:08;;;;;;;10.25;5.10;;;;;;;29.83;59.47;100091.47;3591157;40;20041;-70
2021/07/07 14:04:33;;;;;;;7.00;4.30;;;;;;;29.93;58.11;100094.75;3592087;40;20032;-73
2021/07/07 14:09:28;;;;;;;14.52;4.57;;;;;;;29.23;66.37;100097.88;3581264;40;20070;-72
2021/07/07 14:11:54;;;;;;;11.20;5.25;;;;;;;27.82;76.42;100109.50;3581473;40;20039;-70
2021/07/07 14:26:46;;;;;;;6.00;4.18;;;;;;;28.42;69.78;100128.00;3587997;40;20057;-68
2021/07/07 14:29:12;;;;;;;7.00;4.18;;;;;;;28.71;69.44;100129.34;3590907;40;20033;-71
2021/07/07 14:31:38;;;;;;;6.65;4.90;;;;;;;28.76;67.78;100124.47;3590322;40;20440;-73
2021/07/07 14:34:04;;;;;;;5.72;4.30;;;;;;;28.65;68.63;100127.34;3590045;40;20116;-72
2021/07/07 14:36:30;;;;;;;5.43;4.30;;;;;;;28.61;69.54;100133.03;3590248;40;20033;-71
2021/07/07 14:38:57;;;;;;;5.50;4.60;;;;;;;28.25;72.31;100121.81;3591515;40;20340;-71
2021/07/07 14:41:28;;;;;;;9.20;4.88;;;;;;;28.97;69.39;100127.53;3589168;40;20356;-73
2021/07/07 14:44:00;;;;;;;;;;;;;;;29.00;69.35;100121.16;3591950;40;20040;-72
2021/07/07 14:46:29;;;;;;;;;;;;;;;28.83;69.06;100128.13;3590911;40;19937;-72
2021/07/07 14:48:55;;;;;;;6.60;5.05;;;;;;;29.29;68.24;100118.19;3590699;40;20003;-72
2021/07/07 14:51:22;;;;;;;6.22;4.78;;;;;;;28.99;68.36;100122.97;3589994;40;20052;-75
2021/07/07 14:53:50;;;;;;;6.68;4.88;;;;;;;29.18;67.52;100110.63;3591785;40;20041;-71
2021/07/07 14:58:46;;;;;;;6.65;4.82;;;;;;;29.32;67.25;100113.44;3591116;40;20061;-71
2021/07/07 15:01:11;;;;;;;7.40;5.05;;;;;;;28.94;68.66;100104.25;3592098;40;20037;-71
2021/07/07 15:08:35;;;;;;;5.55;5.05;;;;;;;28.82;70.01;100097.66;3625826;22;20053;-74
2021/07/07 15:27:11;;;;;;;9.10;6.90;;;;;;;30.09;64.59;100093.94;3148601;23;20182;-71
2021/07/07 15:29:44;;;;;;;6.53;5.93;;;;;;;29.92;64.86;100099.19;3756328;23;20033;-71
2021/07/07 15:32:15;;;;;;;8.68;5.53;;;;;;;30.08;64.82;100102.78;3712519;23;20033;31
2021/07/07 15:35:06;;;;;;;7.03;5.95;;;;;;;29.94;65.71;100109.50;1344121;23;21459;-74
2021/07/07 15:42:39;;;;;;;7.93;6.45;;;;;;;29.78;67.71;100102.44;3605403;39;20051;-71
2021/07/07 15:50:28;;;;;;;6.90;6.00;;;;;;;29.87;65.19;100113.78;4082167;22;20737;-72
2021/07/07 16:10:58;;;;;;;7.85;6.05;;;;;;;29.80;67.19;100118.00;3703500;22;20373;-73
2021/07/07 16:13:41;;;;;;;7.03;5.93;;;;;;;29.73;68.01;100115.19;3740798;22;20086;-73
2021/07/07 16:16:07;;;;;;;7.88;6.32;;;;;;;29.84;68.34;100112.28;3678072;22;20055;-69
2021/07/07 16:21:03;;;;;;;8.05;6.10;;;;;;;29.80;67.63;100120.63;3711403;22;20214;-71
2021/07/07 16:23:29;;;;;;;7.97;6.00;;;;;;;29.59;67.87;100118.44;3589791;40;20084;-71
2021/07/07 16:29:09;;;;;;;11.93;6.40;;;;;;;30.03;66.15;100131.31;3712701;22;20532;-67
2021/07/07 16:39:13;;;;;;;7.45;6.13;;;;;;;30.51;65.28;100128.66;3607045;39;20076;-71
2021/07/07 16:41:39;;;;;;;6.97;6.18;;;;;;;30.21;64.90;100134.59;3608719;40;20044;-70
2021/07/07 16:44:06;;;;;;;9.70;6.90;;;;;;;30.30;64.53;100138.88;3607463;40;20214;-70
2021/07/07 16:46:31;;;;;;;9.10;7.40;;;;;;;30.60;63.57;100131.13;3606196;39;20046;-70
2021/07/07 16:48:57;;;;;;;7.40;6.53;;;;;;;30.54;64.08;100134.44;3607883;40;20219;-70
2021/07/07 16:53:53;;;;;;;7.43;6.03;;;;;;;30.32;64.76;100134.28;3603831;40;20052;-70
2021/07/07 16:56:19;;;;;;;8.52;6.43;;;;;;;30.30;64.41;100142.34;3605431;40;20031;-70
2021/07/07 16:58:46;;;;;;;8.35;6.07;;;;;;;30.41;64.19;100146.41;3606556;40;20036;-69
2021/07/07 17:01:12;;;;;;;7.30;6.50;;;;;;;30.20;64.44;100138.19;3604858;40;20035;-69
2021/07/07 17:03:39;;;;;;;7.07;6.07;;;;;;;30.28;65.32;100146.94;3604858;40;20623;-72
2021/07/07 17:06:05;;;;;;;8.68;6.40;;;;;;;30.39;64.77;100141.31;3607688;40;20032;-70
2021/07/07 17:08:31;;;;;;;8.60;6.60;;;;;;;30.25;65.81;100151.66;3607058;40;20048;-71
2021/07/07 17:10:57;;;;;;;8.93;6.38;;;;;;;30.01;66.04;100143.78;3606671;40;20765;-69
2021/07/07 17:13:24;;;;;;;7.93;6.22;;;;;;;29.74;65.78;100148.31;3606757;40;20116;-70
2021/07/07 17:15:50;;;;;;;8.82;6.30;;;;;;;29.98;65.09;100151.97;3606540;40;20028;-72
2021/07/07 17:18:17;;;;;;;9.48;6.47;;;;;;;29.74;65.63;100145.72;3607261;40;20040;-70
2021/07/07 17:20:44;;;;;;;8.85;7.53;;;;;;;29.67;66.45;100149.09;3607148;40;20035;-69
2021/07/07 17:23:13;;;;;;;9.95;6.90;;;;;;;29.70;65.51;100152.22;3596703;40;20122;-70
2021/07/07 17:25:39;;;;;;;8.68;6.53;;;;;;;29.76;65.82;100159.47;3607967;40;20036;-70
2021/07/07 17:28:12;;;;;;;6.93;6.30;;;;;;;29.94;65.29;100154.91;3608285;40;20036;-71
2021/07/07 17:30:39;;;;;;;13.30;7.50;;;;;;;29.64;66.44;100154.66;3608276;40;20040;-72
2021/07/07 17:33:07;;;;;;;8.32;6.68;;;;;;;29.38;67.60;100154.75;3608158;40;20290;-70
2021/07/07 17:35:33;;;;;;;8.95;7.57;;;;;;;29.36;67.35;100150.63;3608157;40;20028;-70
2021/07/07 17:38:00;;;;;;;10.00;7.00;;;;;;;28.85;68.37;100160.22;3606968;40;20040;-70
2021/07/07 17:40:27;;;;;;;9.88;6.25;;;;;;;28.90;68.15;100162.38;3608459;40;20039;-70
2021/07/07 17:42:54;;;;;;;7.60;6.80;;;;;;;28.79;69.96;100163.44;3609027;40;20314;-70
2021/07/07 17:45:20;;;;;;;12.23;9.93;;;;;;;28.73;69.53;100164.06;3608091;40;20425;-70
2021/07/07 17:47:46;;;;;;;7.63;6.80;;;;;;;28.77;69.15;100175.03;3608402;40;20044;-70
2021/07/07 17:50:13;;;;;;;8.82;6.72;;;;;;;28.74;68.80;100180.59;3608222;40;20052;-70
2021/07/07 17:52:39;;;;;;;8.20;7.20;;;;;;;28.47;69.59;100178.06;3613816;39;20572;-71
2021/07/07 17:57:35;;;;;;;10.43;7.57;;;;;;;28.40;70.18;100175.25;3698445;23;20478;-69
2021/07/07 18:00:01;;;;;;;10.25;7.88;;;;;;;28.32;70.19;100182.19;3594440;40;20033;-70
2021/07/07 18:02:27;;;;;;;11.27;8.45;;;;;;;28.43;69.49;100193.25;3593685;40;20106;-69
2021/07/07 18:04:54;;;;;;;9.55;7.88;;;;;;;28.38;69.06;100182.44;3604313;40;20329;-70
2021/07/07 18:07:24;;;;;;;11.13;8.07;;;;;;;28.37;69.43;100195.63;3604884;40;20050;-71
2021/07/07 18:09:50;;;;;;;10.32;8.00;;;;;;;28.23;69.77;100197.00;3597381;40;20045;-70
2021/07/07 18:12:16;;;;;;;9.55;7.80;;;;;;;28.31;69.35;100202.31;3597639;40;20028;-70
2021/07/07 18:17:15;;;;;;;12.18;7.40;;;;;;;28.11;70.91;100206.03;3704904;23;20028;-72
2021/07/07 18:19:41;;;;;;;12.77;8.13;;;;;;;28.03;71.45;100198.94;3681287;23;20045;-69
2021/07/07 18:22:10;;;;;;;11.70;8.35;;;;;;;28.17;70.49;100202.81;2404966;23;20051;-71
2021/07/07 18:30:12;;;;;;;9.32;7.07;;;;;;;27.71;72.26;100219.47;1749232;22;20190;-70
2021/07/07 18:35:13;;;;;;;9.85;7.03;;;;;;;27.68;71.80;100232.03;3581493;40;20084;-71
2021/07/07 18:37:39;;;;;;;7.80;6.88;;;;;;;27.24;74.03;100226.53;3583292;40;20348;-71
2021/07/07 18:40:07;;;;;;;9.00;6.57;;;;;;;27.21;74.20;100239.06;3583324;40;20041;-69
2021/07/07 18:42:34;;;;;;;9.52;6.70;;;;;;;27.50;72.70;100245.03;3582619;40;20048;-67
2021/07/07 18:45:02;;;;;;;10.15;6.55;;;;;;;27.75;72.13;100244.34;3584580;40;20037;-69
2021/07/07 18:47:32;;;;;;;11.07;7.25;;;;;;;27.47;73.05;100247.13;3587002;40;20033;-73
2021/07/07 18:49:58;;;;;;;12.25;8.38;;;;;;;27.67;72.26;100251.28;3588538;40;20049;-70
2021/07/07 18:52:26;;;;;;;9.40;8.38;;;;;;;27.55;73.10;100249.84;3588104;40;20036;-72
2021/07/07 18:54:59;;;;;;;9.55;7.85;;;;;;;27.33;73.75;100249.25;3587593;40;20277;-73
2021/07/07 18:57:25;;;;;;;11.25;7.78;;;;;;;27.48;73.99;100251.38;3587567;40;20040;-71
2021/07/07 18:59:51;;;;;;;9.00;7.82;;;;;;;27.37;73.59;100253.19;3588258;40;20040;-71
2021/07/07 19:04:49;;;;;;;9.77;7.68;;;;;;;27.62;73.06;100250.91;3607069;39;20056;-70
2021/07/07 19:07:16;;;;;;;7.80;6.75;;;;;;;27.74;72.43;100252.34;3596850;40;20029;-69
2021/07/07 19:09:42;;;;;;;9.98;7.18;;;;;;;27.65;72.51;100256.69;3599478;39;20044;-69
2021/07/07 19:12:08;;;;;;;7.30;6.55;;;;;;;27.49;73.56;100268.72;3600062;40;20086;-71
2021/07/07 19:24:43;;;;;;;7.32;6.60;;;;;;;27.28;74.50;100282.75;3596262;40;20089;-70
2021/07/07 19:27:09;;;;;;;9.73;7.00;;;;;;;27.48;74.79;100283.56;3599974;40;20036;-71
2021/07/07 19:50:10;;;;;;;16.73;11.57;;;;;;;27.33;77.39;100288.44;3574764;40;20501;-70
2021/07/07 19:52:36;;;;;;;18.88;12.20;;;;;;;27.37;76.65;100283.75;3575261;40;20057;-69
2021/07/07 19:55:05;;;;;;;12.30;10.55;;;;;;;27.30;75.88;100290.44;3575635;40;20025;-68
2021/07/07 19:57:31;;;;;;;11.43;8.88;;;;;;;27.23;75.04;100287.59;3573775;40;20036;-69
2021/07/07 19:59:57;;;;;;;8.52;7.65;;;;;;;26.72;77.55;100289.72;3575505;40;20033;-70
2021/07/07 20:02:22;;;;;;;8.88;6.60;;;;;;;26.69;77.96;100289.97;3574144;40;20534;-71
2021/07/07 20:04:48;;;;;;;7.55;6.85;;;;;;;26.47;78.52;100290.22;3575555;40;20096;-69
2021/07/07 20:07:16;;;;;;;9.38;7.40;;;;;;;26.42;79.51;100282.81;3575687;40;20041;-68
2021/07/07 20:09:44;;;;;;;7.85;6.82;;;;;;;26.25;80.74;100290.47;3564521;40;21132;-68
2021/07/07 20:12:18;;;;;;;9.43;7.80;;;;;;;26.33;80.07;100290.63;3577165;40;20358;-70
2021/07/07 20:19:50;;;;;;;10.05;7.20;;;;;;;26.66;79.31;100300.69;3589802;40;20123;-70